Time;durP1;ratioP1;P1;durP2;ratioP2;P2;SDS_P1;SDS_P2;PMS_P1;PMS_P2;Temp;Humidity;BMP_temperature;BMP_pressure;BME280_temperature;BME280_humidity;BME280_pressure;Samples;Min_cycle;Max_cycle;Signal;HPM_P1;HPM_P2
2022/09/22 00:00:57;;;;;;;16.57;11.97;;;;;;;7.93;100.00;100037.21;1718804;83;21389;-58
2022/09/22 00:03:26;;;;;;;16.57;11.83;;;;;;;7.97;100.00;100037.19;1718174;82;21729;-56
2022/09/22 00:06:15;;;;;;;16.45;10.10;;;;;;;8.08;100.00;100029.50;1694889;83;21545;-58
2022/09/22 00:08:47;;;;;;;14.45;10.20;;;;;;;8.04;100.00;100034.23;1718520;83;22285;-56
2022/09/22 00:11:23;;;;;;;18.65;12.50;;;;;;;8.20;100.00;100040.30;1718878;83;20992;-56
2022/09/22 00:13:58;;;;;;;19.23;12.70;;;;;;;8.18;100.00;100039.64;1718497;83;20884;-56
2022/09/22 00:16:30;;;;;;;15.43;11.78;;;;;;;8.36;100.00;100040.66;1718792;83;21022;-57
2022/09/22 00:18:57;;;;;;;15.10;11.60;;;;;;;8.33;100.00;100037.91;1718731;83;20971;-57
2022/09/22 00:21:29;;;;;;;14.75;11.65;;;;;;;8.32;100.00;100039.39;1718287;83;21129;-63
2022/09/22 00:23:57;;;;;;;15.60;11.45;;;;;;;8.25;100.00;100044.47;1718617;83;21454;-61
2022/09/22 00:26:24;;;;;;;14.68;10.43;;;;;;;8.16;100.00;100042.92;1718225;83;21027;-58
2022/09/22 00:28:52;;;;;;;15.65;11.28;;;;;;;8.02;100.00;100051.75;1718982;83;21120;-57
2022/09/22 00:31:23;;;;;;;16.62;11.45;;;;;;;8.05;100.00;100058.39;1718359;83;20963;-66
2022/09/22 00:33:52;;;;;;;15.18;10.53;;;;;;;7.91;100.00;100057.33;1718841;83;21515;-65
2022/09/22 00:36:21;;;;;;;14.03;10.20;;;;;;;7.94;100.00;100042.72;1718428;83;20912;-57
2022/09/22 00:38:51;;;;;;;16.93;11.65;;;;;;;7.99;100.00;100039.59;1718811;83;20955;-57
2022/09/22 00:41:26;;;;;;;17.02;11.85;;;;;;;8.08;100.00;100035.19;1718382;83;21144;-63
2022/09/22 00:44:27;;;;;;;15.00;10.50;;;;;;;8.07;100.00;100026.59;1717770;83;21090;-57
2022/09/22 00:47:20;;;;;;;14.78;10.15;;;;;;;7.99;100.00;100031.34;1718064;83;21531;-58
2022/09/22 00:50:12;;;;;;;14.55;10.32;;;;;;;8.05;100.00;100022.86;1718683;83;21012;-57
2022/09/22 00:52:53;;;;;;;13.93;9.73;;;;;;;8.04;100.00;100017.84;1718217;83;21112;-61
2022/09/22 00:55:27;;;;;;;16.02;9.83;;;;;;;7.96;100.00;100012.22;1719153;83;21230;-57
2022/09/22 00:57:54;;;;;;;11.60;9.28;;;;;;;7.91;100.00;100017.09;1718726;83;20935;-57
2022/09/22 01:00:22;;;;;;;11.30;8.40;;;;;;;7.85;100.00;100020.39;1718174;83;21527;-59
2022/09/22 01:02:50;;;;;;;13.28;9.45;;;;;;;7.84;100.00;100021.38;1718697;83;21109;-57
2022/09/22 01:05:17;;;;;;;17.37;10.03;;;;;;;7.95;100.00;100014.47;1728207;82;21106;-57
2022/09/22 01:07:46;;;;;;;12.90;9.10;;;;;;;8.00;100.00;100008.30;1730333;81;21956;-61
2022/09/22 01:10:14;;;;;;;10.60;7.75;;;;;;;7.93;100.00;100013.05;1730473;81;21508;-63
2022/09/22 01:12:47;;;;;;;12.37;6.75;;;;;;;7.83;100.00;100017.64;1730803;81;21108;-58
2022/09/22 01:15:26;;;;;;;8.23;6.55;;;;;;;7.81;100.00;100010.04;1730873;82;21010;-58
2022/09/22 01:18:17;;;;;;;10.08;7.00;;;;;;;7.69;100.00;100004.89;1730611;81;20903;-66
2022/09/22 01:21:13;;;;;;;9.23;5.60;;;;;;;7.61;100.00;100008.34;1730914;82;21232;-57
2022/09/22 01:24:10;;;;;;;10.78;5.60;;;;;;;7.56;100.00;100011.45;1730244;82;21525;-58
2022/09/22 01:27:10;;;;;;;9.53;6.35;;;;;;;7.60;100.00;100004.62;1730931;82;20987;-60
2022/09/22 01:30:11;;;;;;;9.23;6.67;;;;;;;7.61;100.00;99998.45;1731535;82;20951;-57
2022/09/22 01:33:05;;;;;;;8.50;6.10;;;;;;;7.55;100.00;99993.47;1731912;81;21007;-56
2022/09/22 01:36:18;;;;;;;9.85;6.15;;;;;;;7.48;100.00;99995.13;1730488;82;21838;-57
2022/09/22 01:39:08;;;;;;;9.83;6.87;;;;;;;7.48;100.00;99999.81;1730683;82;20896;-57
2022/09/22 01:41:50;;;;;;;9.00;6.83;;;;;;;7.58;100.00;100001.38;1731443;82;20993;-56
2022/09/22 01:44:34;;;;;;;10.03;6.87;;;;;;;7.56;100.00;100001.07;1730163;82;20942;-57
2022/09/22 01:47:18;;;;;;;10.23;6.08;;;;;;;7.49;100.00;99998.03;1731574;82;20946;-56
2022/09/22 01:49:53;;;;;;;8.95;5.92;;;;;;;7.38;100.00;100000.50;1724943;82;22487;-58
2022/09/22 01:52:24;;;;;;;7.47;5.42;;;;;;;7.29;100.00;100002.81;1731376;81;21062;-56
2022/09/22 01:55:07;;;;;;;10.13;6.22;;;;;;;7.23;100.00;100004.28;1731669;82;21028;-57
2022/09/22 01:57:45;;;;;;;9.88;7.12;;;;;;;7.17;100.00;100003.67;1730499;82;21523;-57
2022/09/22 02:00:12;;;;;;;9.50;6.42;;;;;;;7.12;100.00;99999.45;1731399;82;21015;-56
2022/09/22 02:02:47;;;;;;;8.25;5.75;;;;;;;6.99;100.00;100005.17;1731466;82;22464;-57
2022/09/22 02:05:22;;;;;;;8.70;5.65;;;;;;;6.95;100.00;100005.18;1723023;82;20982;-65
2022/09/22 02:07:50;;;;;;;10.98;6.92;;;;;;;7.00;100.00;100007.27;1719346;83;21065;-57
2022/09/22 02:10:21;;;;;;;9.55;6.58;;;;;;;7.05;100.00;100004.52;1719637;83;20976;-57
2022/09/22 02:12:48;;;;;;;9.38;6.40;;;;;;;7.11;100.00;100010.80;1719149;83;20939;-65
2022/09/22 02:18:08;;;;;;;9.83;5.78;;;;;;;7.06;100.00;100010.01;1719215;83;20952;-59
2022/09/22 02:20:36;;;;;;;9.20;6.37;;;;;;;7.06;100.00;100006.13;1718363;83;21565;-64
2022/09/22 02:23:03;;;;;;;9.33;6.85;;;;;;;7.12;100.00;100007.23;1719268;83;21486;-58
2022/09/22 02:25:30;;;;;;;8.98;6.28;;;;;;;7.04;100.00;100003.37;1719234;83;21007;-56
2022/09/22 02:27:58;;;;;;;7.55;5.08;;;;;;;7.01;100.00;100003.23;1718846;83;21198;-56
2022/09/22 02:30:25;;;;;;;7.45;5.30;;;;;;;6.95;100.00;100009.06;1719005;83;20981;-64
2022/09/22 02:32:53;;;;;;;8.33;5.87;;;;;;;6.90;100.00;100009.25;1718815;83;22547;-56
2022/09/22 02:35:21;;;;;;;8.80;6.25;;;;;;;6.87;100.00;100011.68;1719313;83;21486;-56
2022/09/22 02:38:09;;;;;;;7.37;5.37;;;;;;;6.83;100.00;100011.20;1718861;83;20947;-56
2022/09/22 02:40:51;;;;;;;8.03;5.60;;;;;;;6.80;100.00;100012.81;1718271;83;22001;-57
2022/09/22 02:43:41;;;;;;;8.48;6.08;;;;;;;6.72;100.00;100019.30;1719045;83;20935;-57
2022/09/22 02:46:24;;;;;;;9.35;6.67;;;;;;;6.70;100.00;100019.14;1712501;83;21054;-57
2022/09/22 02:48:58;;;;;;;10.95;6.67;;;;;;;6.66;100.00;100025.62;1719179;83;21461;-59
2022/09/22 02:51:26;;;;;;;8.70;6.75;;;;;;;6.66;100.00;100027.72;1718540;83;20967;-63
2022/09/22 02:53:53;;;;;;;11.57;6.55;;;;;;;6.65;100.00;100029.19;1694804;83;21285;-57
2022/09/22 02:56:21;;;;;;;9.68;6.37;;;;;;;6.61;100.00;100031.30;1718911;83;20903;-56
2022/09/22 02:58:48;;;;;;;9.10;6.58;;;;;;;6.60;100.00;100027.09;1718833;83;20919;-56
2022/09/22 03:01:15;;;;;;;8.80;6.17;;;;;;;6.54;100.00;100025.95;1718422;83;21002;-64
2022/09/22 03:03:43;;;;;;;9.60;6.40;;;;;;;6.53;100.00;100026.13;1718223;83;21134;-57
2022/09/22 03:06:10;;;;;;;9.10;6.40;;;;;;;6.53;100.00;100026.92;1718978;82;21274;-57
2022/09/22 03:08:39;;;;;;;9.58;6.75;;;;;;;6.61;100.00;100020.93;1719097;83;20919;-58
2022/09/22 03:11:06;;;;;;;9.95;7.28;;;;;;;6.64;100.00;100017.22;1719207;83;21006;-60
2022/09/22 03:13:34;;;;;;;10.43;6.10;;;;;;;6.72;100.00;100022.39;1718281;83;20975;-57
2022/09/22 03:16:01;;;;;;;11.28;6.72;;;;;;;6.77;100.00;100007.16;1719631;83;21482;-56
2022/09/22 03:18:29;;;;;;;8.90;6.35;;;;;;;6.79;100.00;100011.70;1719544;83;21086;-56
2022/09/22 03:20:56;;;;;;;9.60;6.15;;;;;;;6.74;100.00;100015.24;1719691;83;20935;-58
2022/09/22 03:23:23;;;;;;;10.15;7.35;;;;;;;6.68;100.00;100014.63;1718538;83;20990;-65
2022/09/22 03:25:51;;;;;;;9.85;6.53;;;;;;;6.70;100.00;100014.76;1719684;83;21574;-56
2022/09/22 03:28:19;;;;;;;8.43;5.58;;;;;;;6.75;100.00;100012.51;1719482;83;20936;-57
2022/09/22 03:30:46;;;;;;;9.33;5.75;;;;;;;6.75;100.00;100003.93;1719371;83;21270;-57
2022/09/22 03:33:14;;;;;;;8.30;5.25;;;;;;;6.75;100.00;100006.52;1719429;83;21521;-57
2022/09/22 03:35:41;;;;;;;7.53;5.50;;;;;;;6.68;100.00;100004.27;1718673;83;21042;-57
2022/09/22 03:38:08;;;;;;;9.80;5.25;;;;;;;6.61;100.00;100005.88;1719317;83;21098;-57
2022/09/22 03:40:36;;;;;;;9.93;5.67;;;;;;;6.54;100.00;100005.23;1719158;83;21005;-56
2022/09/22 03:43:03;;;;;;;7.80;5.45;;;;;;;6.51;100.00;100010.73;1719368;83;21269;-57
2022/09/22 03:45:30;;;;;;;7.65;5.12;;;;;;;6.53;100.00;100013.98;1718359;83;21047;-64
2022/09/22 03:47:58;;;;;;;10.95;5.80;;;;;;;6.53;100.00;100017.86;1718999;83;21900;-57
2022/09/22 03:50:25;;;;;;;9.55;6.80;;;;;;;6.58;100.00;100011.70;1719734;83;21055;-57
2022/09/22 03:52:52;;;;;;;7.50;5.28;;;;;;;6.72;100.00;100014.61;1719356;83;20971;-58
2022/09/22 03:55:19;;;;;;;8.08;5.67;;;;;;;6.77;100.00;100016.22;1719706;83;21258;-56
2022/09/22 03:57:47;;;;;;;7.28;5.30;;;;;;;6.98;100.00;100020.41;1718060;83;20999;-57
2022/09/22 04:00:15;;;;;;;8.73;5.40;;;;;;;7.16;100.00;100020.66;1719571;83;22031;-56
2022/09/22 04:02:42;;;;;;;8.48;5.42;;;;;;;7.29;100.00;100022.27;1719070;83;21654;-56
2022/09/22 04:05:10;;;;;;;8.43;5.47;;;;;;;7.39;100.00;100020.29;1722563;81;21421;-56
2022/09/22 04:07:37;;;;;;;6.72;5.20;;;;;;;7.51;100.00;100028.02;1730750;82;21111;-63
2022/09/22 04:10:06;;;;;;;8.45;5.37;;;;;;;7.59;100.00;100036.25;1731186;81;21553;-56
2022/09/22 04:12:36;;;;;;;8.05;5.25;;;;;;;7.62;100.00;100038.52;1731124;82;21005;-56
2022/09/22 04:15:05;;;;;;;6.80;5.12;;;;;;;7.68;100.00;100039.61;1731296;82;20989;-56
2022/09/22 04:17:32;;;;;;;7.05;5.20;;;;;;;7.69;100.00;100038.62;1730341;81;21109;-61
2022/09/22 04:20:01;;;;;;;6.87;5.22;;;;;;;7.68;100.00;100048.69;1730283;82;22209;-57
2022/09/22 04:22:30;;;;;;;8.10;5.20;;;;;;;7.65;100.00;100047.72;1730879;82;21041;-59
2022/09/22 04:24:57;;;;;;;7.20;5.30;;;;;;;7.71;100.00;100045.76;1731107;81;21014;-58
2022/09/22 04:27:24;;;;;;;6.50;4.87;;;;;;;7.71;100.00;100046.56;1730551;82;21017;-60
2022/09/22 04:29:51;;;;;;;8.38;5.58;;;;;;;7.70;100.00;100050.64;1730845;82;21407;-56
2022/09/22 04:32:18;;;;;;;6.53;4.80;;;;;;;7.71;100.00;100053.55;1731554;82;21158;-59
2022/09/22 04:34:47;;;;;;;7.33;5.12;;;;;;;7.85;100.00;100052.83;1731085;82;20903;-59
2022/09/22 04:37:14;;;;;;;6.53;4.78;;;;;;;8.03;100.00;100055.98;1731391;82;21085;-65
2022/09/22 04:39:41;;;;;;;7.30;5.50;;;;;;;8.23;100.00;100065.42;1730653;82;21019;-58
2022/09/22 04:42:08;;;;;;;7.45;5.00;;;;;;;8.32;100.00;100070.06;1731154;82;21817;-60
2022/09/22 04:44:36;;;;;;;7.25;5.50;;;;;;;8.47;100.00;100076.66;1730584;82;21160;-59
2022/09/22 04:47:04;;;;;;;7.05;4.95;;;;;;;8.69;100.00;100080.23;1730493;81;20964;-62
2022/09/22 04:49:33;;;;;;;6.47;4.80;;;;;;;8.98;100.00;100079.50;1730462;82;20946;-66
2022/09/22 04:52:00;;;;;;;6.33;4.80;;;;;;;9.55;100.00;100080.20;1730615;82;21861;-58
2022/09/22 04:54:27;;;;;;;6.27;4.03;;;;;;;10.22;100.00;100079.95;1730897;82;21872;-56
2022/09/22 04:56:54;;;;;;;6.87;4.40;;;;;;;10.80;100.00;100076.03;1730687;81;21335;-60
2022/09/22 04:59:22;;;;;;;6.63;4.67;;;;;;;11.31;100.00;100069.23;1730833;82;21253;-66
2022/09/22 05:01:49;;;;;;;6.63;4.20;;;;;;;11.77;100.00;100069.15;1730958;82;21652;-58
2022/09/22 05:04:17;;;;;;;6.07;4.33;;;;;;;12.12;100.00;100068.58;1730949;81;22180;-58
2022/09/22 05:06:44;;;;;;;5.07;3.87;;;;;;;12.53;100.00;100068.95;1721795;82;21543;-58
2022/09/22 05:09:11;;;;;;;5.70;4.67;;;;;;;12.76;100.00;100075.89;1718849;83;21460;-64
2022/09/22 05:11:38;;;;;;;5.67;4.17;;;;;;;12.76;100.00;100075.89;1718207;83;21684;-61
2022/09/22 05:14:06;;;;;;;6.27;4.40;;;;;;;13.02;100.00;100082.92;1719186;83;23171;-57
2022/09/22 05:16:34;;;;;;;7.00;5.33;;;;;;;13.23;100.00;100071.94;1718916;83;21708;-57
2022/09/22 05:19:02;;;;;;;7.63;5.30;;;;;;;13.42;100.00;100069.80;1718873;83;21609;-56
2022/09/22 05:21:30;;;;;;;10.23;6.10;;;;;;;13.51;100.00;100076.92;1718373;83;21172;-56
2022/09/22 05:23:57;;;;;;;8.50;5.80;;;;;;;13.57;100.00;100076.91;1718164;83;21049;-57
2022/09/22 05:26:25;;;;;;;9.87;7.03;;;;;;;13.62;100.00;100076.28;1718433;83;21582;-56
2022/09/22 05:28:52;;;;;;;9.03;6.97;;;;;;;13.58;100.00;100070.65;1718731;83;21106;-57
2022/09/22 05:31:20;;;;;;;8.60;6.50;;;;;;;13.58;100.00;100069.85;1719096;83;20876;-63
2022/09/22 05:33:47;;;;;;;8.43;6.30;;;;;;;13.74;100.00;100071.19;1718240;83;21960;-59
2022/09/22 05:36:14;;;;;;;19.77;6.03;;;;;;;14.00;100.00;100066.34;1718594;83;20991;-56
2022/09/22 05:38:41;;;;;;;7.43;6.00;;;;;;;14.31;100.00;100068.16;1719104;83;21501;-57
2022/09/22 05:41:08;;;;;;;8.07;7.00;;;;;;;14.55;100.00;100070.57;1718502;83;21678;-58
2022/09/22 05:43:36;;;;;;;9.67;7.77;;;;;;;14.84;100.00;100072.53;1718560;83;21063;-58
2022/09/22 05:46:05;;;;;;;10.07;7.20;;;;;;;15.05;100.00;100073.17;1718384;83;21442;-57
2022/09/22 05:48:33;;;;;;;10.70;6.27;;;;;;;15.27;100.00;100066.48;1718793;83;21347;-56
2022/09/22 05:51:00;;;;;;;10.17;7.73;;;;;;;15.39;100.00;100067.87;1719221;83;20900;-56
2022/09/22 05:53:28;;;;;;;9.13;6.70;;;;;;;15.55;100.00;100069.90;1718876;83;20984;-61
2022/09/22 05:55:56;;;;;;;8.77;6.67;;;;;;;15.83;100.00;100066.46;1718125;83;20995;-65
2022/09/22 05:58:23;;;;;;;10.93;7.67;;;;;;;16.04;100.00;100067.30;1719103;83;21514;-56
2022/09/22 06:00:50;;;;;;;12.13;8.07;;;;;;;16.27;100.00;100073.14;1718939;83;20971;-56
2022/09/22 06:03:18;;;;;;;9.47;7.80;;;;;;;16.52;100.00;100074.30;1719243;83;21058;-56
2022/09/22 06:05:45;;;;;;;9.60;8.13;;;;;;;16.86;100.00;100073.25;1718911;82;21533;-59
2022/09/22 06:08:13;;;;;;;12.00;10.43;;;;;;;17.25;100.00;100071.25;1719588;83;21497;-57
2022/09/22 06:10:40;;;;;;;11.43;10.17;;;;;;;17.60;100.00;100067.73;1719726;83;21274;-55
2022/09/22 06:13:08;;;;;;;9.60;8.60;;;;;;;17.99;100.00;100069.28;1719375;83;20944;-56
2022/09/22 06:15:37;;;;;;;9.47;7.63;;;;;;;18.44;100.00;100065.31;1719034;83;21504;-61
2022/09/22 06:18:07;;;;;;;8.27;6.53;;;;;;;18.84;100.00;100070.98;1718330;83;21281;-57
2022/09/22 06:20:34;;;;;;;7.30;6.20;;;;;;;19.30;100.00;100065.53;1718963;83;21455;-55
2022/09/22 06:23:02;;;;;;;8.20;6.33;;;;;;;19.81;100.00;100065.64;1719134;83;21928;-56
2022/09/22 06:25:29;;;;;;;7.10;5.77;;;;;;;20.31;100.00;100065.86;1718415;83;21468;-56
2022/09/22 06:28:06;;;;;;;8.07;6.00;;;;;;;20.87;100.00;100064.16;1719057;83;21109;-55
2022/09/22 06:30:35;;;;;;;6.73;6.00;;;;;;;21.41;100.00;100054.67;1694701;83;21375;-55
2022/09/22 06:33:02;;;;;;;7.00;6.20;;;;;;;21.94;100.00;100047.92;1718918;83;21016;-56
2022/09/22 06:35:34;;;;;;;5.93;5.27;;;;;;;22.32;94.74;100046.12;1717937;83;21224;-61
2022/09/22 06:37:59;;;;;;;6.67;4.93;;;;;;;22.68;90.25;100049.27;1718160;83;20998;-62
2022/09/22 06:40:26;;;;;;;7.27;5.07;;;;;;;22.97;85.94;100041.55;1718628;83;21078;-55
2022/09/22 06:43:10;;;;;;;7.17;5.00;;;;;;;23.47;79.00;100035.22;1718879;83;21089;-55
2022/09/22 06:45:32;;;;;;;6.40;4.93;;;;;;;24.04;67.98;100035.17;1717603;83;21422;-59
2022/09/22 06:48:00;;;;;;;6.85;4.87;;;;;;;24.31;64.10;100029.89;1718240;83;21419;-56
2022/09/22 06:50:31;;;;;;;7.35;4.70;;;;;;;24.63;59.34;100029.92;1719029;83;21054;-57
2022/09/22 06:53:00;;;;;;;;;;;;;;;24.66;59.73;100029.33;1721453;83;20999;-55
2022/09/22 06:55:28;;;;;;;4.70;4.28;;;;;;;25.23;56.54;100032.48;1717917;82;20212;-55
2022/09/22 06:57:57;;;;;;;5.15;3.55;;;;;;;25.90;52.42;100031.58;1718564;83;21009;-56
2022/09/22 07:00:30;;;;;;;4.65;2.90;;;;;;;26.52;47.87;100030.06;1718605;83;21293;-55
2022/09/22 07:03:08;;;;;;;5.28;3.02;;;;;;;27.71;41.64;100017.51;1717814;83;21505;-55
2022/09/22 07:05:36;;;;;;;4.65;2.45;;;;;;;27.71;41.64;100017.51;1718492;82;21252;-64
2022/09/22 07:08:04;;;;;;;4.22;3.02;;;;;;;28.14;38.88;100019.17;1730617;82;21054;-55
2022/09/22 07:10:36;;;;;;;3.15;2.33;;;;;;;28.39;38.25;100021.56;1730691;81;21390;-57
2022/09/22 07:13:00;;;;;;;4.70;2.90;;;;;;;28.63;37.74;100015.83;1729709;82;21158;-57
2022/09/22 07:15:29;;;;;;;2.98;1.87;;;;;;;28.86;37.16;100015.44;1730593;82;21396;-55
2022/09/22 07:17:57;;;;;;;3.35;1.67;;;;;;;29.36;35.32;100017.55;1730277;81;21048;-59
2022/09/22 07:20:24;;;;;;;4.33;1.87;;;;;;;29.63;34.44;100011.92;1730699;82;21084;-55
2022/09/22 07:22:59;;;;;;;3.65;2.30;;;;;;;29.85;35.15;100018.22;1730785;82;20990;-55
2022/09/22 07:25:34;;;;;;;3.60;2.10;;;;;;;30.22;33.77;100018.89;1730597;82;21796;-55
2022/09/22 07:28:03;;;;;;;4.97;2.10;;;;;;;30.40;32.64;100014.27;1729811;81;20907;-57
2022/09/22 07:30:29;;;;;;;5.30;2.87;;;;;;;30.34;32.22;100012.06;1730525;82;21391;-56
2022/09/22 07:32:56;;;;;;;5.25;3.15;;;;;;;30.33;32.50;100021.25;1730242;81;21045;-55
2022/09/22 07:35:23;;;;;;;5.72;3.12;;;;;;;30.17;32.87;100024.45;1730893;82;20989;-55
2022/09/22 07:38:02;;;;;;;4.22;2.95;;;;;;;30.09;32.38;100024.45;1730237;82;21082;-65
2022/09/22 07:40:25;;;;;;;3.52;2.10;;;;;;;29.80;32.47;100022.64;1729848;81;21068;-65
2022/09/22 07:42:52;;;;;;;5.05;2.85;;;;;;;29.59;32.84;100019.03;1730490;82;21519;-57
2022/09/22 07:45:21;;;;;;;3.92;2.60;;;;;;;29.36;32.24;100017.55;1730312;82;21018;-57
2022/09/22 07:50:34;;;;;;;3.95;2.22;;;;;;;28.92;33.72;100026.05;1730212;82;21173;-58
2022/09/22 07:53:03;;;;;;;2.12;1.47;;;;;;;29.18;33.01;100021.56;1730629;82;21117;-57
2022/09/22 07:55:30;;;;;;;3.72;2.77;;;;;;;29.21;31.46;100008.86;1730349;82;21062;-58
2022/09/22 07:57:59;;;;;;;3.25;1.52;;;;;;;29.33;32.44;100007.69;1730923;82;21008;-57
2022/09/22 08:00:33;;;;;;;2.70;1.50;;;;;;;29.55;31.38;100001.95;1730180;82;21027;-58
2022/09/22 08:03:00;;;;;;;1.50;1.00;;;;;;;29.78;30.60;100005.28;1730705;81;22886;-57
2022/09/22 08:05:27;;;;;;;2.37;1.22;;;;;;;29.99;29.34;100004.05;1729847;81;21006;-56
2022/09/22 08:07:59;;;;;;;2.72;1.07;;;;;;;30.06;28.23;99994.95;1730843;81;21419;-55
2022/09/22 08:10:28;;;;;;;2.45;1.50;;;;;;;30.09;28.91;99991.63;1730433;82;21041;-55
2022/09/22 08:12:56;;;;;;;2.47;1.27;;;;;;;30.11;28.42;99994.77;1730458;81;20978;-55
2022/09/22 08:15:25;;;;;;;1.32;0.88;;;;;;;30.21;28.39;99986.96;1730184;81;21324;-67
2022/09/22 08:17:56;;;;;;;1.80;1.17;;;;;;;30.34;26.72;99987.86;1730893;82;21978;-57
2022/09/22 08:20:27;;;;;;;1.98;1.05;;;;;;;30.50;27.24;99984.89;1730221;82;21058;-58
2022/09/22 08:22:53;;;;;;;1.95;1.17;;;;;;;30.20;27.29;99982.70;1730823;82;21073;-57
2022/09/22 08:25:20;;;;;;;2.17;1.10;;;;;;;29.73;27.46;99987.41;1730615;82;20955;-59
2022/09/22 08:27:47;;;;;;;1.70;1.10;;;;;;;29.42;28.69;99984.86;1730801;82;21740;-58
2022/09/22 08:30:16;;;;;;;2.00;1.30;;;;;;;29.48;28.53;99988.98;1730749;82;21533;-67
2022/09/22 08:32:43;;;;;;;1.85;1.17;;;;;;;29.99;28.05;99977.18;1730484;81;21315;-57
2022/09/22 08:35:11;;;;;;;3.02;1.50;;;;;;;30.19;27.47;99975.73;1730818;82;21057;-59
2022/09/22 08:37:40;;;;;;;2.25;1.50;;;;;;;30.06;27.39;99978.27;1730164;82;21006;-57
2022/09/22 08:40:16;;;;;;;2.92;1.55;;;;;;;29.73;27.32;99981.25;1730944;82;21056;-57
2022/09/22 08:42:44;;;;;;;2.33;1.52;;;;;;;29.49;28.29;99980.38;1730425;82;21039;-57
2022/09/22 08:45:31;;;;;;;2.92;1.70;;;;;;;29.41;28.43;99972.55;1730243;82;21002;-56
2022/09/22 08:53:55;;;;;;;4.67;1.87;;;;;;;28.07;29.64;99965.77;1730542;81;21209;-67
2022/09/22 08:56:37;;;;;;;2.40;1.70;;;;;;;27.62;30.05;99973.81;1730355;82;21417;-57
2022/09/22 08:59:21;;;;;;;2.65;1.95;;;;;;;27.22;30.42;99968.27;1730748;82;21074;-64
2022/09/22 09:02:20;;;;;;;2.67;1.92;;;;;;;26.60;31.45;99971.92;1730483;82;21384;-57
2022/09/22 09:05:21;;;;;;;3.77;1.90;;;;;;;25.94;31.98;99967.16;1730386;82;20986;-57
2022/09/22 09:08:13;;;;;;;2.37;1.65;;;;;;;25.68;33.12;99966.73;1723569;82;21759;-56
2022/09/22 09:10:54;;;;;;;2.25;1.42;;;;;;;25.71;32.61;99963.48;1690012;83;20999;-56
2022/09/22 09:13:47;;;;;;;2.67;1.62;;;;;;;25.90;32.53;99960.81;1719058;83;20903;-56
2022/09/22 09:16:31;;;;;;;2.10;1.50;;;;;;;26.27;32.09;99951.91;1719247;83;21439;-55
2022/09/22 09:19:19;;;;;;;3.30;1.75;;;;;;;26.86;32.00;99942.25;1718979;83;20900;-62
2022/09/22 09:21:51;;;;;;;2.17;1.62;;;;;;;27.30;30.43;99928.75;1717706;83;21539;-55
2022/09/22 09:24:35;;;;;;;1.95;1.57;;;;;;;27.48;30.42;99929.68;1719274;83;20979;-55
2022/09/22 09:27:07;;;;;;;1.92;1.50;;;;;;;27.48;30.54;99934.25;1693863;83;21498;-55
2022/09/22 09:29:43;;;;;;;2.00;1.30;;;;;;;27.75;30.56;99938.72;1718949;83;21021;-55
2022/09/22 09:32:18;;;;;;;1.90;1.50;;;;;;;28.23;29.31;99942.86;1718657;83;21500;-58
2022/09/22 09:34:46;;;;;;;3.30;1.60;;;;;;;28.58;28.72;99939.78;1718253;83;21459;-56
2022/09/22 09:37:13;;;;;;;2.70;1.55;;;;;;;28.89;28.60;99944.83;1718930;83;21034;-55
2022/09/22 09:39:41;;;;;;;1.92;1.60;;;;;;;29.14;28.17;99945.45;1718665;83;20944;-55
2022/09/22 09:42:24;;;;;;;2.05;1.40;;;;;;;29.42;27.68;99932.50;1718795;83;20935;-65
2022/09/22 09:44:52;;;;;;;3.20;1.30;;;;;;;29.70;27.77;99930.83;1712236;83;21003;-56
2022/09/22 09:47:37;;;;;;;2.40;1.50;;;;;;;29.85;27.30;99927.64;1719127;83;21409;-55
2022/09/22 09:50:05;;;;;;;3.15;1.67;;;;;;;30.04;27.23;99924.06;1718161;83;20995;-60
2022/09/22 09:52:34;;;;;;;4.03;1.62;;;;;;;30.21;27.21;99928.60;1718382;83;21090;-61
2022/09/22 09:55:02;;;;;;;2.85;2.17;;;;;;;30.35;26.87;99927.61;1718897;83;21101;-56
2022/09/22 09:57:29;;;;;;;5.85;2.67;;;;;;;30.14;28.10;99923.46;1718804;83;21003;-56
2022/09/22 10:00:30;;;;;;;3.12;2.10;;;;;;;29.67;28.24;99934.18;1719047;83;21494;-57
2022/09/22 10:03:30;;;;;;;3.30;2.30;;;;;;;28.93;29.36;99933.70;1719272;83;21659;-57
2022/09/22 10:06:07;;;;;;;4.42;2.02;;;;;;;28.16;30.41;99927.77;1712292;83;21490;-56
2022/09/22 10:08:48;;;;;;;3.72;2.33;;;;;;;27.18;31.20;99924.48;1719229;82;21022;-55
2022/09/22 10:11:15;;;;;;;3.80;2.20;;;;;;;26.04;32.76;99920.80;1718574;83;21518;-57
2022/09/22 10:13:43;;;;;;;4.25;1.87;;;;;;;25.03;34.20;99922.00;1719092;83;21577;-55
2022/09/22 10:16:27;;;;;;;3.60;1.97;;;;;;;24.22;35.41;99921.84;1719236;83;20948;-55
2022/09/22 10:19:06;;;;;;;3.03;2.30;;;;;;;23.53;36.92;99923.73;1718504;83;21039;-66
2022/09/22 10:21:36;;;;;;;3.37;2.10;;;;;;;22.99;38.06;99923.22;1716539;83;20974;-55
2022/09/22 10:24:08;;;;;;;2.72;1.85;;;;;;;22.71;38.59;99918.55;1719834;83;21023;-55
2022/09/22 10:26:35;;;;;;;3.05;1.80;;;;;;;22.68;38.59;99920.41;1687065;83;24599;-64
2022/09/22 10:29:19;;;;;;;3.30;2.03;;;;;;;22.97;38.59;99916.08;1718506;83;21448;-55
2022/09/22 10:32:15;;;;;;;2.43;1.73;;;;;;;23.48;37.65;99910.44;1718519;83;21038;-56
2022/09/22 10:34:48;;;;;;;2.97;1.80;;;;;;;24.00;36.15;99911.66;1719470;83;21086;-56
2022/09/22 10:37:18;;;;;;;3.10;1.57;;;;;;;24.18;36.24;99909.37;1719488;83;21042;-56
2022/09/22 10:39:51;;;;;;;2.20;1.50;;;;;;;24.56;36.26;99910.88;1719208;83;21287;-56
2022/09/22 10:42:36;;;;;;;2.80;1.90;;;;;;;25.10;35.79;99912.34;1717760;83;20962;-60
2022/09/22 10:45:14;;;;;;;2.57;2.03;;;;;;;25.61;34.53;99913.73;1718864;83;21121;-55
2022/09/22 10:48:06;;;;;;;4.67;2.73;;;;;;;25.65;33.89;99908.06;1718291;83;21053;-57
2022/09/22 10:51:08;;;;;;;2.85;1.90;;;;;;;25.51;34.72;99902.42;1718920;83;21133;-56
2022/09/22 10:53:48;;;;;;;2.70;1.80;;;;;;;25.56;33.89;99903.66;1719131;83;21740;-56
2022/09/22 10:56:38;;;;;;;6.37;5.47;;;;;;;25.64;33.82;99900.33;1719332;83;21055;-56
2022/09/22 10:59:43;;;;;;;3.20;1.95;;;;;;;25.82;33.56;99899.53;1719343;83;21436;-55
2022/09/22 11:02:37;;;;;;;2.33;1.60;;;;;;;26.24;33.30;99896.38;1717662;83;20963;-65
2022/09/22 11:12:14;;;;;;;5.63;1.97;;;;;;;26.85;32.56;99892.51;1699141;83;21145;-55
2022/09/22 11:14:35;;;;;;;3.70;1.70;;;;;;;25.45;32.83;99905.15;1718098;83;21542;-63
2022/09/22 11:17:17;;;;;;;3.30;1.70;;;;;;;24.49;34.73;99904.55;1719038;83;21004;-55
2022/09/22 11:20:17;;;;;;;4.07;1.60;;;;;;;24.04;35.39;99908.69;1718417;83;21153;-57
2022/09/22 11:23:23;;;;;;;2.20;1.57;;;;;;;23.73;36.05;99904.72;1718812;83;21271;-57
2022/09/22 11:26:17;;;;;;;4.37;1.83;;;;;;;23.48;36.69;99901.67;1718714;83;20993;-56
2022/09/22 11:29:19;;;;;;;2.47;1.67;;;;;;;23.21;36.65;99904.23;1718196;83;21034;-58
2022/09/22 11:32:09;;;;;;;4.00;1.90;;;;;;;22.98;37.04;99909.68;1718696;83;20940;-56
2022/09/22 11:34:57;;;;;;;3.42;2.00;;;;;;;22.98;36.82;99900.91;1691861;83;21470;-56
2022/09/22 11:37:49;;;;;;;2.30;1.60;;;;;;;23.12;37.41;99901.91;1718491;83;21234;-57
2022/09/22 11:40:56;;;;;;;2.50;1.57;;;;;;;23.48;36.77;99907.78;1694517;83;20967;-55
2022/09/22 11:43:41;;;;;;;2.13;1.47;;;;;;;23.78;35.71;99906.00;1718964;83;21051;-56
2022/09/22 11:46:40;;;;;;;3.23;1.93;;;;;;;23.81;35.33;99900.66;1719426;83;20924;-61
2022/09/22 11:49:36;;;;;;;2.53;1.60;;;;;;;23.81;35.56;99896.67;1719255;83;20927;-56
2022/09/22 11:52:28;;;;;;;2.73;1.47;;;;;;;24.09;35.48;99899.06;1718924;83;21297;-56
2022/09/22 11:55:16;;;;;;;3.43;1.53;;;;;;;24.42;34.77;99900.88;1719200;83;21496;-55
2022/09/22 11:57:48;;;;;;;4.23;1.80;;;;;;;24.54;34.41;99903.14;1719090;83;32822;-57
2022/09/22 12:00:18;;;;;;;2.02;1.27;;;;;;;24.41;34.33;99891.84;1719765;83;21026;-55
2022/09/22 12:02:50;;;;;;;2.62;1.25;;;;;;;24.22;34.73;99897.88;1718510;83;21496;-62
2022/09/22 12:05:38;;;;;;;2.37;1.23;;;;;;;24.12;35.56;99889.19;1718988;83;21509;-57
2022/09/22 12:08:16;;;;;;;2.13;1.30;;;;;;;24.01;35.98;99891.15;1718927;82;20971;-56
2022/09/22 12:10:45;;;;;;;1.87;1.30;;;;;;;24.02;36.04;99892.22;1719096;83;21053;-55
2022/09/22 12:13:27;;;;;;;3.63;1.30;;;;;;;24.12;35.88;99891.84;1719842;83;20975;-55